createdAt,value
2022-09-10T00:01:25.658Z,52.88
2022-09-10T00:03:54.826Z,53.29
2022-09-10T00:06:26.719Z,53.33
2022-09-10T00:08:56.292Z,53.01
2022-09-10T00:11:24.906Z,52.99
2022-09-10T00:13:55.157Z,53.29
2022-09-10T00:16:23.539Z,53.23
2022-09-10T00:18:51.729Z,53.05
2022-09-10T00:21:21.708Z,53.19
2022-09-10T00:23:50.690Z,53.27
2022-09-10T00:26:21.834Z,53.21
2022-09-10T00:28:50.530Z,53.08
2022-09-10T00:31:21.893Z,53.17
2022-09-10T00:33:51.135Z,53.47
2022-09-10T00:36:21.710Z,53.22
2022-09-10T00:38:50.961Z,53.52
2022-09-10T00:41:20.610Z,53.24
2022-09-10T00:43:51.805Z,53.62
2022-09-10T00:46:40.343Z,53.56
2022-09-10T00:49:15.831Z,53.44
2022-09-10T00:51:45.130Z,53.59
2022-09-10T00:54:14.573Z,53.41
2022-09-10T00:56:43.348Z,53.39
2022-09-10T00:59:15.415Z,53.59
2022-09-10T01:01:45.025Z,53.45
2022-09-10T01:04:13.116Z,53.80
2022-09-10T01:06:42.193Z,53.63
2022-09-10T01:09:10.944Z,53.51
2022-09-10T01:12:00.827Z,53.80
2022-09-10T01:14:47.574Z,53.75
2022-09-10T01:17:30.483Z,53.44
2022-09-10T01:20:36.938Z,53.72
2022-09-10T01:23:28.244Z,53.54
2022-09-10T01:26:05.016Z,53.45
2022-09-10T01:28:41.308Z,53.57
2022-09-10T01:31:15.032Z,53.84
2022-09-10T01:33:50.960Z,53.89
2022-09-10T01:36:24.035Z,53.38
2022-09-10T01:38:53.172Z,53.48
2022-09-10T01:41:24.151Z,53.58
2022-09-10T01:43:53.608Z,53.48
2022-09-10T01:46:35.585Z,53.64
2022-09-10T01:49:22.288Z,53.43
2022-09-10T01:52:09.295Z,53.73
2022-09-10T01:54:48.134Z,53.44
2022-09-10T01:57:30.934Z,53.73
2022-09-10T02:00:06.473Z,53.69
2022-09-10T02:02:42.027Z,53.50
2022-09-10T02:05:11.862Z,53.92
2022-09-10T02:07:40.696Z,53.55
2022-09-10T02:10:10.786Z,53.64
2022-09-10T02:12:40.164Z,53.85
2022-09-10T02:15:11.627Z,53.72
2022-09-10T02:17:40.767Z,53.74
2022-09-10T02:20:13.751Z,53.83
2022-09-10T02:22:49.036Z,53.52
2022-09-10T02:25:17.494Z,53.53
2022-09-10T02:27:45.990Z,53.53
2022-09-10T02:30:16.166Z,53.87
2022-09-10T02:32:44.190Z,53.61
2022-09-10T02:35:12.266Z,53.82
2022-09-10T02:37:40.298Z,53.48
2022-09-10T02:40:09.310Z,53.86
2022-09-10T02:42:38.332Z,53.47
2022-09-10T02:45:08.266Z,53.61
2022-09-10T02:47:37.756Z,53.76
2022-09-10T02:50:06.832Z,53.82
2022-09-10T02:52:35.192Z,53.33
2022-09-10T02:55:03.362Z,53.59
2022-09-10T02:57:31.443Z,53.60
2022-09-10T02:59:59.541Z,53.40
2022-09-10T03:02:27.594Z,53.57
2022-09-10T03:04:57.055Z,53.53
2022-09-10T03:07:25.172Z,53.31
2022-09-10T03:09:53.214Z,53.73
2022-09-10T03:12:21.960Z,53.35
2022-09-10T03:14:50.392Z,53.26
2022-09-10T03:17:18.468Z,53.30
2022-09-10T03:19:46.484Z,53.50
2022-09-10T03:22:16.014Z,53.38
2022-09-10T03:24:44.183Z,53.46
2022-09-10T03:27:14.053Z,53.28
2022-09-10T03:29:42.101Z,53.52
2022-09-10T03:32:10.195Z,53.63
2022-09-10T03:34:40.001Z,53.51
2022-09-10T03:37:08.107Z,53.67
2022-09-10T03:39:37.653Z,53.25
2022-09-10T03:42:06.252Z,53.30
2022-09-10T03:44:35.073Z,53.58
2022-09-10T03:47:03.560Z,53.52
2022-09-10T03:49:31.645Z,53.39
2022-09-10T03:52:00.584Z,53.39
2022-09-10T03:54:28.658Z,53.29
2022-09-10T03:56:59.055Z,53.57
2022-09-10T03:59:27.087Z,53.64
2022-09-10T04:01:55.188Z,53.65
2022-09-10T04:04:23.317Z,53.56
2022-09-10T04:06:53.008Z,53.47
2022-09-10T04:09:21.060Z,53.21
2022-09-10T04:11:49.144Z,53.67
2022-09-10T04:14:19.588Z,53.26
2022-09-10T04:16:47.787Z,53.18
2022-09-10T04:19:15.886Z,53.38
2022-09-10T04:21:43.922Z,53.46
2022-09-10T04:24:13.241Z,53.33
2022-09-10T04:26:41.458Z,53.43
2022-09-10T04:29:09.894Z,53.54
2022-09-10T04:31:39.514Z,53.42
2022-09-10T04:34:07.785Z,53.62
2022-09-10T04:36:36.151Z,53.15
2022-09-10T04:39:04.424Z,53.41
2022-09-10T04:41:32.535Z,53.28
2022-09-10T04:44:00.583Z,53.58
2022-09-10T04:46:28.962Z,53.39
2022-09-10T04:48:58.430Z,53.18
2022-09-10T04:51:26.647Z,53.27
2022-09-10T04:53:54.993Z,53.19
2022-09-10T04:56:23.091Z,53.53
2022-09-10T04:58:51.861Z,53.31
2022-09-10T05:01:19.937Z,53.26
2022-09-10T05:03:48.048Z,53.19
2022-09-10T05:06:17.471Z,53.16
2022-09-10T05:08:45.526Z,53.50
2022-09-10T05:11:13.556Z,53.40
2022-09-10T05:13:43.148Z,53.63
2022-09-10T05:16:11.201Z,53.18
2022-09-10T05:18:39.513Z,53.15
2022-09-10T05:21:07.831Z,53.28
2022-09-10T05:23:37.291Z,53.20
2022-09-10T05:26:05.399Z,53.24
2022-09-10T05:28:33.432Z,53.14
2022-09-10T05:31:01.480Z,53.40
2022-09-10T05:33:29.564Z,53.12
2022-09-10T05:35:57.625Z,53.15
2022-09-10T05:38:26.667Z,53.25
2022-09-10T05:40:57.178Z,53.38
2022-09-10T05:43:25.273Z,53.42
2022-09-10T05:45:53.356Z,53.50
2022-09-10T05:48:21.809Z,53.38
2022-09-10T05:50:49.859Z,53.35
2022-09-10T05:53:18.210Z,53.31
2022-09-10T05:55:47.151Z,53.33
2022-09-10T05:58:17.126Z,53.15
2022-09-10T06:00:45.168Z,53.35
2022-09-10T06:03:13.290Z,53.34
2022-09-10T06:05:41.369Z,53.43
2022-09-10T06:08:09.450Z,53.46
2022-09-10T06:10:37.500Z,53.17
2022-09-10T06:13:07.194Z,53.17
2022-09-10T06:15:37.996Z,53.18
2022-09-10T06:18:06.163Z,53.43
2022-09-10T06:20:34.348Z,53.62
2022-09-10T06:23:02.406Z,53.67
2022-09-10T06:25:31.204Z,53.27
2022-09-10T06:27:59.301Z,53.43
2022-09-10T06:30:27.637Z,53.67
2022-09-10T06:32:57.603Z,53.25
2022-09-10T06:35:27.240Z,53.46
2022-09-10T06:37:56.000Z,53.34
2022-09-10T06:40:26.618Z,53.46
2022-09-10T06:42:55.314Z,53.34
2022-09-10T06:45:24.196Z,53.65
2022-09-10T06:48:37.068Z,53.17
2022-09-10T06:50:51.389Z,53.57
2022-09-10T06:53:22.185Z,53.47
2022-09-10T06:55:51.104Z,53.32
2022-09-10T06:58:19.951Z,53.37
2022-09-10T07:00:48.194Z,53.55
2022-09-10T07:03:16.883Z,53.69
2022-09-10T07:05:47.406Z,53.50
2022-09-10T07:08:16.805Z,53.35
2022-09-10T07:10:46.772Z,53.23
2022-09-10T07:13:15.128Z,53.51
2022-09-10T07:15:46.814Z,53.33
2022-09-10T07:18:15.566Z,53.05
2022-09-10T07:20:44.223Z,53.16
2022-09-10T07:23:14.647Z,53.32
2022-09-10T07:25:43.099Z,53.41
2022-09-10T07:28:15.124Z,53.66
2022-09-10T07:30:43.897Z,53.73
2022-09-10T07:33:12.334Z,53.58
2022-09-10T07:35:40.755Z,53.50
2022-09-10T07:38:18.088Z,53.63
2022-09-10T07:40:46.621Z,53.79
2022-09-10T07:43:14.674Z,53.90
2022-09-10T07:45:42.962Z,53.82
2022-09-10T07:48:12.707Z,53.75
2022-09-10T07:50:40.794Z,53.54
2022-09-10T07:53:08.854Z,53.61
2022-09-10T07:55:38.605Z,53.96
2022-09-10T07:58:06.830Z,53.69
2022-09-10T08:00:34.910Z,53.53
2022-09-10T08:03:03.568Z,53.60
2022-09-10T08:05:32.270Z,53.96
2022-09-10T08:08:00.664Z,53.88
2022-09-10T08:10:28.740Z,53.93
2022-09-10T08:12:59.525Z,54.00
2022-09-10T08:15:27.948Z,53.93
2022-09-10T08:17:56.014Z,54.03
2022-09-10T08:20:25.272Z,53.71
2022-09-10T08:22:53.293Z,54.07
2022-09-10T08:25:21.668Z,53.85
2022-09-10T08:27:49.700Z,53.78
2022-09-10T08:30:19.329Z,53.87
2022-09-10T08:32:47.425Z,53.85
2022-09-10T08:35:15.583Z,53.71
2022-09-10T08:37:43.776Z,54.13
2022-09-10T08:40:13.475Z,53.90
2022-09-10T08:42:46.855Z,54.19
2022-09-10T08:45:21.122Z,54.04
2022-09-10T08:47:58.656Z,53.84
2022-09-10T08:50:37.468Z,53.96
2022-09-10T08:53:14.527Z,53.88
2022-09-10T08:55:48.356Z,53.82
2022-09-10T08:58:22.590Z,54.25
2022-09-10T09:00:57.160Z,53.93
2022-09-10T09:03:33.646Z,54.30
2022-09-10T09:06:04.025Z,53.95
2022-09-10T09:08:36.075Z,54.28
2022-09-10T09:11:12.068Z,54.00
2022-09-10T09:14:00.582Z,54.34
2022-09-10T09:16:41.912Z,54.27
2022-09-10T09:19:18.273Z,53.95
2022-09-10T09:21:52.682Z,54.40
2022-09-10T09:24:25.258Z,54.25
2022-09-10T09:26:56.858Z,54.08
2022-09-10T09:29:29.652Z,53.84
2022-09-10T09:32:00.950Z,54.07
2022-09-10T09:34:34.763Z,53.97
2022-09-10T09:37:05.747Z,53.90
2022-09-10T09:39:39.688Z,54.14
2022-09-10T09:42:14.690Z,54.40
2022-09-10T09:44:52.751Z,54.02
2022-09-10T09:47:24.638Z,54.34
2022-09-10T09:49:54.038Z,54.12
2022-09-10T09:52:24.404Z,53.83
2022-09-10T09:55:14.685Z,53.89
2022-09-10T09:57:43.321Z,53.88
2022-09-10T10:00:36.320Z,54.31
2022-09-10T10:03:14.411Z,54.42
2022-09-10T10:05:42.919Z,54.24
2022-09-10T10:08:30.198Z,54.49
2022-09-10T10:10:58.779Z,54.38
2022-09-10T10:13:36.269Z,54.09
2022-09-10T10:16:16.306Z,54.31
2022-09-10T10:18:46.535Z,54.08
2022-09-10T10:21:17.996Z,53.94
2022-09-10T10:23:46.162Z,54.16
2022-09-10T10:26:30.509Z,54.30
2022-09-10T10:29:06.651Z,53.99
2022-09-10T10:31:39.841Z,53.99
2022-09-10T10:34:45.374Z,53.94
2022-09-10T10:37:19.682Z,53.96
2022-09-10T10:40:03.505Z,54.15
2022-09-10T10:42:38.909Z,54.48
2022-09-10T10:45:32.293Z,54.11
2022-09-10T10:48:10.048Z,54.39
2022-09-10T10:50:52.760Z,54.30
2022-09-10T10:53:43.269Z,54.45
2022-09-10T10:56:21.244Z,54.38
2022-09-10T10:59:05.645Z,54.06
2022-09-10T11:01:39.793Z,54.39
2022-09-10T11:04:24.095Z,54.45
2022-09-10T11:07:01.767Z,54.03
2022-09-10T11:09:39.030Z,54.08
2022-09-10T11:12:12.048Z,54.32
2022-09-10T11:14:48.464Z,54.15
2022-09-10T11:17:21.109Z,54.13
2022-09-10T11:20:11.179Z,54.15
2022-09-10T11:22:50.917Z,54.22
2022-09-10T11:25:24.166Z,54.03
2022-09-10T11:27:55.920Z,54.21
2022-09-10T11:30:24.335Z,54.15
2022-09-10T11:32:59.793Z,54.46
2022-09-10T11:35:31.551Z,54.20
2022-09-10T11:38:08.150Z,54.36
2022-09-10T11:40:43.206Z,54.33
2022-09-10T11:43:14.664Z,54.17
2022-09-10T11:45:52.755Z,54.16
2022-09-10T11:48:27.609Z,54.56
2022-09-10T11:50:59.531Z,54.04
2022-09-10T11:53:30.526Z,54.03
2022-09-10T11:56:26.086Z,54.54
2022-09-10T11:59:10.916Z,54.28
2022-09-10T12:01:56.014Z,54.18
2022-09-10T12:04:50.431Z,54.49
2022-09-10T12:07:29.232Z,54.42
2022-09-10T12:10:14.187Z,54.54
2022-09-10T12:12:45.103Z,54.31
2022-09-10T12:15:20.837Z,54.54
2022-09-10T12:17:54.132Z,54.10
2022-09-10T12:20:29.904Z,54.11
2022-09-10T12:22:59.013Z,54.60
2022-09-10T12:25:34.302Z,54.38
2022-09-10T12:28:07.963Z,54.31
2022-09-10T12:31:02.977Z,54.72
2022-09-10T12:34:06.895Z,54.52
2022-09-10T12:37:10.315Z,54.65
2022-09-10T12:39:38.499Z,54.34
2022-09-10T12:42:28.248Z,54.87
2022-09-10T12:44:56.406Z,54.47
2022-09-10T12:47:43.393Z,54.37
2022-09-10T12:50:34.216Z,54.84
2022-09-10T12:53:47.389Z,54.63
2022-09-10T12:56:40.438Z,54.60
2022-09-10T12:59:44.132Z,54.85
2022-09-10T13:02:30.975Z,54.82
2022-09-10T13:05:03.281Z,54.77
2022-09-10T13:07:40.335Z,54.53
2022-09-10T13:10:21.936Z,54.66
2022-09-10T13:12:55.852Z,54.46
2022-09-10T13:15:26.514Z,54.41
2022-09-10T13:18:26.975Z,54.57
2022-09-10T13:20:55.321Z,54.63
2022-09-10T13:23:48.741Z,54.94
2022-09-10T13:26:52.394Z,54.50
2022-09-10T13:29:34.752Z,54.46
2022-09-10T13:32:08.231Z,54.80
2022-09-10T13:35:11.471Z,54.70
2022-09-10T13:38:17.709Z,54.73
2022-09-10T13:41:03.147Z,54.33
2022-09-10T13:43:49.850Z,54.79
2022-09-10T13:46:26.531Z,54.75
2022-09-10T13:49:03.430Z,54.60
2022-09-10T13:51:37.505Z,54.63
2022-09-10T13:54:10.323Z,54.57
2022-09-10T13:56:43.770Z,54.41
2022-09-10T13:59:19.073Z,54.59
2022-09-10T14:01:51.737Z,54.68
2022-09-10T14:04:24.386Z,54.37
2022-09-10T14:06:55.708Z,54.30
2022-09-10T14:09:23.955Z,54.30
2022-09-10T14:11:52.400Z,54.62
2022-09-10T14:14:23.744Z,54.41
2022-09-10T14:16:54.032Z,54.66
2022-09-10T14:19:25.023Z,54.67
2022-09-10T14:21:57.363Z,54.63
2022-09-10T14:24:30.851Z,54.27
2022-09-10T14:27:16.748Z,54.37
2022-09-10T14:29:46.707Z,54.34
2022-09-10T14:32:32.976Z,54.73
2022-09-10T14:35:23.029Z,54.59
2022-09-10T14:37:52.556Z,54.14
2022-09-10T14:40:23.201Z,54.34
2022-09-10T14:42:52.006Z,54.52
2022-09-10T14:45:40.551Z,54.63
2022-09-10T14:48:30.560Z,54.62
2022-09-10T14:51:12.358Z,54.47
2022-09-10T14:53:43.199Z,54.19
2022-09-10T14:56:22.868Z,54.26
2022-09-10T14:59:00.190Z,54.63
2022-09-10T15:01:29.360Z,54.66
2022-09-10T15:03:59.318Z,54.49
2022-09-10T15:06:27.515Z,54.14
2022-09-10T15:08:57.295Z,54.42
2022-09-10T15:11:28.071Z,54.52
2022-09-10T15:13:59.336Z,54.44
2022-09-10T15:16:27.689Z,54.34
2022-09-10T15:18:55.926Z,54.03
2022-09-10T15:21:24.241Z,54.26
2022-09-10T15:23:52.335Z,54.09
2022-09-10T15:26:21.835Z,54.24
2022-09-10T15:28:50.160Z,53.94
2022-09-10T15:31:18.788Z,54.19
2022-09-10T15:33:47.174Z,54.16
2022-09-10T15:36:15.289Z,54.30
2022-09-10T15:38:43.463Z,54.25
2022-09-10T15:41:13.603Z,54.25
2022-09-10T15:43:44.695Z,54.08
2022-09-10T15:46:18.685Z,54.23
2022-09-10T15:48:47.577Z,54.33
2022-09-10T15:51:17.553Z,54.47
2022-09-10T15:53:46.344Z,54.32
2022-09-10T15:56:14.749Z,54.02
2022-09-10T15:58:49.405Z,54.29
2022-09-10T16:01:17.645Z,54.19
2022-09-10T16:03:47.701Z,54.10
2022-09-10T16:06:16.438Z,54.43
2022-09-10T16:08:49.643Z,54.29
2022-09-10T16:11:18.228Z,54.39
2022-09-10T16:13:48.186Z,54.12
2022-09-10T16:16:19.737Z,54.12
2022-09-10T16:18:49.245Z,54.43
2022-09-10T16:21:19.275Z,54.11
2022-09-10T16:23:48.393Z,54.57
2022-09-10T16:26:20.276Z,54.61
2022-09-10T16:28:53.848Z,54.45
2022-09-10T16:31:23.815Z,54.34
2022-09-10T16:33:55.069Z,54.68
2022-09-10T16:36:25.246Z,54.32
2022-09-10T16:38:57.573Z,54.54
2022-09-10T16:41:27.148Z,54.40
2022-09-10T16:43:59.452Z,54.46
2022-09-10T16:46:28.787Z,54.54
2022-09-10T16:48:58.657Z,54.40
2022-09-10T16:51:29.167Z,54.59
2022-09-10T16:54:01.642Z,54.37
2022-09-10T16:56:31.147Z,54.22
2022-09-10T16:59:00.927Z,54.32
2022-09-10T17:01:29.599Z,54.42
2022-09-10T17:03:58.224Z,54.54
2022-09-10T17:06:29.289Z,54.65
2022-09-10T17:08:58.894Z,54.22
2022-09-10T17:11:29.216Z,54.23
2022-09-10T17:13:58.649Z,54.58
2022-09-10T17:16:30.911Z,54.39
2022-09-10T17:19:00.279Z,54.62
2022-09-10T17:21:29.861Z,54.35
2022-09-10T17:23:58.322Z,54.57
2022-09-10T17:26:27.166Z,54.26
2022-09-10T17:28:56.997Z,54.54
2022-09-10T17:31:27.517Z,54.16
2022-09-10T17:33:57.782Z,54.28
2022-09-10T17:36:26.783Z,54.21
2022-09-10T17:38:55.488Z,54.42
2022-09-10T17:41:25.315Z,54.69
2022-09-10T17:43:53.512Z,54.21
2022-09-10T17:46:23.502Z,54.55
2022-09-10T17:48:53.661Z,54.28
2022-09-10T17:51:24.853Z,54.50
2022-09-10T17:53:53.974Z,54.27
2022-09-10T17:56:23.135Z,54.19
2022-09-10T17:58:55.950Z,54.49
2022-09-10T18:01:26.536Z,54.59
2022-09-10T18:03:55.596Z,54.30
2022-09-10T18:06:25.651Z,54.14
2022-09-10T18:08:54.339Z,54.63
2022-09-10T18:11:24.581Z,54.20
2022-09-10T18:13:53.941Z,54.56
2022-09-10T18:16:24.430Z,54.56
2022-09-10T18:18:55.809Z,54.60
2022-09-10T18:21:27.298Z,54.52
2022-09-10T18:23:57.616Z,54.66
2022-09-10T18:26:27.361Z,54.35
2022-09-10T18:28:59.394Z,54.64
2022-09-10T18:31:30.110Z,54.68
2022-09-10T18:33:58.431Z,54.47
2022-09-10T18:36:28.786Z,54.75
2022-09-10T18:38:56.961Z,54.36
2022-09-10T18:41:27.011Z,54.71
2022-09-10T18:43:57.793Z,54.66
2022-09-10T18:46:26.178Z,54.31
2022-09-10T18:48:54.687Z,54.56
2022-09-10T18:51:24.842Z,54.25
2022-09-10T18:53:56.709Z,54.23
2022-09-10T18:56:27.692Z,54.47
2022-09-10T18:58:57.295Z,54.67
2022-09-10T19:01:27.182Z,54.62
2022-09-10T19:03:57.631Z,54.43
2022-09-10T19:06:27.070Z,54.26
2022-09-10T19:08:58.973Z,54.41
2022-09-10T19:11:33.088Z,54.61
2022-09-10T19:14:02.901Z,54.77
2022-09-10T19:16:32.623Z,54.72
2022-09-10T19:19:02.573Z,54.76
2022-09-10T19:21:32.970Z,54.69
2022-09-10T19:24:03.759Z,54.54
2022-09-10T19:26:33.734Z,54.86
2022-09-10T19:29:04.030Z,54.94
2022-09-10T19:31:34.180Z,54.49
2022-09-10T19:34:04.045Z,54.36
2022-09-10T19:36:34.667Z,54.68
2022-09-10T19:39:05.392Z,54.59
2022-09-10T19:41:35.585Z,54.48
2022-09-10T19:44:04.896Z,54.96
2022-09-10T19:46:33.530Z,54.63
2022-09-10T19:49:01.857Z,54.84
2022-09-10T19:51:31.815Z,54.69
2022-09-10T19:54:00.703Z,54.77
2022-09-10T19:56:32.820Z,54.55
2022-09-10T19:59:02.681Z,54.53
2022-09-10T20:01:32.763Z,54.62
2022-09-10T20:04:02.381Z,54.77
2022-09-10T20:06:31.071Z,54.78
2022-09-10T20:08:59.339Z,54.49
2022-09-10T20:11:31.447Z,54.64
2022-09-10T20:14:01.423Z,54.90
2022-09-10T20:16:30.030Z,54.44
2022-09-10T20:18:58.696Z,54.67
2022-09-10T20:21:29.699Z,54.71
2022-09-10T20:23:57.823Z,54.76
2022-09-10T20:26:28.468Z,54.56
2022-09-10T20:29:00.769Z,54.69
2022-09-10T20:31:31.378Z,54.77
2022-09-10T20:34:01.111Z,54.64
2022-09-10T20:36:29.752Z,54.39
2022-09-10T20:38:57.880Z,54.40
2022-09-10T20:41:30.236Z,54.28
2022-09-10T20:44:02.621Z,54.45
2022-09-10T20:46:32.569Z,54.46
2022-09-10T20:49:03.281Z,54.27
2022-09-10T20:51:34.463Z,54.52
2022-09-10T20:54:02.919Z,54.72
2022-09-10T20:56:31.139Z,54.72
2022-09-10T20:59:02.003Z,54.30
2022-09-10T21:01:32.218Z,54.69
2022-09-10T21:04:04.178Z,54.56
2022-09-10T21:06:34.402Z,54.52
2022-09-10T21:09:03.993Z,54.37
2022-09-10T21:11:34.111Z,54.35
2022-09-10T21:14:05.742Z,54.73
2022-09-10T21:16:35.983Z,54.28
2022-09-10T21:19:07.459Z,54.14
2022-09-10T21:21:37.172Z,54.58
2022-09-10T21:24:07.481Z,54.48
2022-09-10T21:26:37.608Z,54.63
2022-09-10T21:29:10.749Z,54.42
2022-09-10T21:31:39.163Z,54.27
2022-09-10T21:34:07.826Z,54.42
2022-09-10T21:36:37.760Z,54.07
2022-09-10T21:39:09.839Z,54.26
2022-09-10T21:41:39.994Z,54.32
2022-09-10T21:44:14.289Z,54.36
2022-09-10T21:46:42.779Z,54.37
2022-09-10T21:49:11.079Z,54.16
2022-09-10T21:51:39.200Z,54.22
2022-09-10T21:54:07.416Z,54.17
2022-09-10T21:56:35.581Z,54.52
2022-09-10T21:59:03.729Z,54.10
2022-09-10T22:01:33.748Z,54.34
2022-09-10T22:04:02.300Z,54.33
2022-09-10T22:06:31.747Z,53.90
2022-09-10T22:09:02.168Z,53.91
2022-09-10T22:11:32.507Z,54.19
2022-09-10T22:14:02.179Z,53.84
2022-09-10T22:16:33.392Z,53.98
2022-09-10T22:19:03.377Z,54.27
2022-09-10T22:21:31.689Z,54.17
2022-09-10T22:23:59.816Z,53.97
2022-09-10T22:26:29.362Z,54.22
2022-09-10T22:28:59.439Z,54.24
2022-09-10T22:31:31.310Z,53.94
2022-09-10T22:34:03.157Z,54.23
2022-09-10T22:36:34.209Z,54.08
2022-09-10T22:39:04.810Z,54.37
2022-09-10T22:41:35.266Z,54.05
2022-09-10T22:44:04.070Z,53.87
2022-09-10T22:46:33.131Z,54.01
2022-09-10T22:49:03.115Z,54.00
2022-09-10T22:51:34.387Z,53.97
2022-09-10T22:54:02.889Z,53.93
2022-09-10T22:56:31.026Z,54.08
2022-09-10T22:59:00.453Z,54.04
2022-09-10T23:01:31.082Z,54.28
2022-09-10T23:04:00.267Z,53.95
2022-09-10T23:06:31.940Z,53.83
2022-09-10T23:09:10.551Z,54.26
2022-09-10T23:11:39.810Z,54.02
2022-09-10T23:14:10.350Z,54.01
2022-09-10T23:16:40.323Z,54.29
2022-09-10T23:19:11.963Z,54.17
2022-09-10T23:21:43.920Z,54.34
2022-09-10T23:24:14.366Z,53.88
2022-09-10T23:26:43.475Z,53.85
2022-09-10T23:29:12.485Z,53.77
2022-09-10T23:31:41.952Z,54.09
2022-09-10T23:34:12.905Z,53.90
2022-09-10T23:36:43.891Z,53.72
2022-09-10T23:39:14.593Z,53.93
2022-09-10T23:41:42.971Z,53.74
2022-09-10T23:44:11.549Z,53.65
2022-09-10T23:46:39.972Z,53.77
2022-09-10T23:49:09.060Z,53.51
2022-09-10T23:51:37.831Z,53.79
2022-09-10T23:54:08.515Z,53.53
2022-09-10T23:56:37.203Z,53.81
2022-09-10T23:59:05.273Z,53.81
